Flag for South Africa

Past Weather in 34°02'59"S, 23°03'00"E, South Africa — Yesterday and Last 2 Weeks

Currently: 61 °F. Sunny. (Weather station: George Airport, South Africa). See more current weather

Past Weather in 34°02'59"S, 23°03'00"E — Graph

°F

34°02'59"S, 23°03'00"E Temperature Yesterday

Maximum temperature yesterday: 63 °F (at 12:00 pm)
Minimum temperature yesterday: 43 °F (at 8:00 am)
Average temperature yesterday: 53 °F

High & Low Weather Summary for the Past Weeks

 TemperatureHumidityPressure
High73 °F (Jul 6, 9:18 pm)100% (Jul 11, 4:00 pm)30.30 "Hg (Jul 11, 4:00 pm)
Low41 °F (Jul 6, 7:00 am)11% (Jul 6, 10:08 pm)29.42 "Hg (Jul 7, 6:00 am)
Average55 °F61%29.91 "Hg
* Reported Jul 3 12:00 pm — Jul 18 12:00 pm, 34°02'59"S, 23°03'00"E. Weather by CustomWeather, © 2024

Note: Actual official high and low records may vary slightly from our data, if they occured in-between our weather recording intervals... More about our weather records

34°02'59"S, 23°03'00"E Weather History for the Previous 24 Hours

Scroll right to see more
 ConditionsComfort  
Time TempWeatherWind HumidityBarometerVisibility
12:00 pm
Thu, Jul 18
61 °FSunny.8 mph59%30.01 "Hg10 mi
11:00 am59 °FSunny.2 mph63%30.01 "Hg10 mi
10:00 am57 °FLight rain. Passing clouds.5 mph63%30.01 "HgN/A
9:00 am57 °FSunny.8 mph59%29.98 "Hg10 mi
8:00 am54 °FPassing clouds.6 mph63%29.95 "HgN/A
7:48 am55 °FSunny.6 mph51%29.95 "Hg10 mi
7:00 am52 °FClear.6 mph72%29.92 "Hg10 mi
6:00 am52 °FClear.3 mph62%29.92 "Hg10 mi
5:12 am52 °FClear.3 mph72%29.92 "Hg10 mi
5:00 am48 °FClear.5 mph87%29.92 "Hg10 mi
4:00 am46 °FPassing clouds.3 mph87%29.92 "HgN/A
3:00 am48 °FPassing clouds.6 mph87%29.92 "HgN/A
2:00 am50 °FPassing clouds.3 mph82%29.92 "HgN/A
1:00 am52 °FPassing clouds.3 mph77%29.92 "HgN/A
12:00 am50 °FPassing clouds.1 mph82%29.95 "HgN/A
11:00 pm
Wed, Jul 17
52 °FPassing clouds.3 mph72%29.95 "HgN/A
10:00 pm52 °FPassing clouds.2 mph77%29.95 "HgN/A
9:00 pm54 °FPassing clouds.2 mph54%29.98 "HgN/A
8:00 pm54 °FClear.5 mph58%29.95 "Hg10 mi
7:00 pm52 °FClear.7 mph62%29.95 "Hg10 mi
6:00 pm54 °FClear.6 mph63%29.95 "Hg10 mi
5:00 pm57 °FSunny.6 mph63%29.95 "Hg10 mi
4:00 pm61 °FSunny.5 mph55%29.95 "Hg10 mi
3:00 pm63 °FPassing clouds.6 mph56%29.95 "HgN/A
2:00 pm63 °FPassing clouds.6 mph52%29.95 "HgN/A
1:00 pm63 °FPassing clouds.6 mph56%29.98 "HgN/A
Weather by CustomWeather, © 2024

See weather overview